Time;durP1;ratioP1;P1;durP2;ratioP2;P2;SDS_P1;SDS_P2;PMS_P1;PMS_P2;Temp;Humidity;BMP_temperature;BMP_pressure;BME280_temperature;BME280_humidity;BME280_pressure;Samples;Min_cycle;Max_cycle;Signal;HPM_P1;HPM_P2
2022/01/26 00:07:09;;;;;;;;;;;19.20;57.20;;;;;;5055404;28;1341;-64
2022/01/26 00:09:34;;;;;;;;;;;19.20;57.30;;;;;;5055440;28;1444;-64
2022/01/26 00:12:00;;;;;;;;;;;19.20;57.30;;;;;;5055628;28;1890;-64
2022/01/26 00:14:25;;;;;;;;;;;19.20;57.30;;;;;;5055372;28;1457;-64
2022/01/26 00:16:51;;;;;;;;;;;19.20;57.30;;;;;;5055940;28;1414;-64
2022/01/26 00:19:23;;;;;;;;;;;19.20;57.30;;;;;;5053406;28;1387;-64
2022/01/26 00:21:53;;;;;;;;;;;19.20;57.30;;;;;;5055660;28;1667;-64
2022/01/26 00:27:35;;;;;;;;;;;19.20;57.40;;;;;;5055216;28;1410;-64
2022/01/26 00:31:12;;;;;;;;;;;19.20;57.40;;;;;;5053784;28;1370;-64
2022/01/26 00:41:04;;;;;;;;;;;19.10;57.40;;;;;;5055486;28;1363;-64
2022/01/26 00:43:29;;;;;;;;;;;19.20;57.50;;;;;;5054226;28;1389;-64
2022/01/26 00:45:57;;;;;;;;;;;19.10;57.40;;;;;;5050713;28;1497;-64
2022/01/26 00:48:23;;;;;;;;;;;19.10;57.50;;;;;;5053320;28;1116;-64
2022/01/26 00:50:53;;;;;;;;;;;19.10;57.50;;;;;;5053716;28;1718;-64
2022/01/26 00:53:19;;;;;;;;;;;19.10;57.50;;;;;;5054967;28;1947;-64
2022/01/26 00:55:44;;;;;;;;;;;19.10;57.60;;;;;;5054626;28;1692;-64
2022/01/26 00:58:10;;;;;;;;;;;19.10;57.60;;;;;;5052100;28;1414;-64
2022/01/26 01:00:35;;;;;;;;;;;19.10;57.60;;;;;;5054825;28;1362;-64
2022/01/26 01:03:01;;;;;;;;;;;19.10;57.60;;;;;;5053189;28;1416;-64
2022/01/26 01:05:34;;;;;;;;;;;19.10;57.60;;;;;;5053404;28;1455;-64
2022/01/26 01:08:05;;;;;;;;;;;19.10;57.60;;;;;;5054301;28;1684;-64
2022/01/26 01:10:31;;;;;;;;;;;19.10;57.60;;;;;;5054467;28;1403;-64
2022/01/26 01:12:58;;;;;;;;;;;19.10;57.60;;;;;;5054401;28;1894;-64
2022/01/26 01:15:24;;;;;;;;;;;19.10;57.70;;;;;;5053407;28;1379;-64
2022/01/26 01:17:54;;;;;;;;;;;19.10;57.70;;;;;;5052228;28;1466;-63
2022/01/26 01:23:26;;;;;;;;;;;19.10;57.70;;;;;;5054521;28;1277;-64
2022/01/26 01:28:58;;;;;;;;;;;19.00;57.70;;;;;;5053660;28;1347;-64
2022/01/26 01:32:00;;;;;;;;;;;19.00;57.70;;;;;;5053719;28;1938;-64
2022/01/26 01:34:17;;;;;;;;;;;19.00;57.70;;;;;;5053105;28;1362;-64
2022/01/26 01:36:45;;;;;;;;;;;19.00;57.70;;;;;;5052914;28;1344;-65
2022/01/26 01:39:10;;;;;;;;;;;19.00;57.70;;;;;;5053184;28;1285;-64
2022/01/26 01:41:36;;;;;;;;;;;19.00;57.70;;;;;;5053395;28;1072;-64
2022/01/26 01:44:04;;;;;;;;;;;19.00;57.70;;;;;;5053475;28;1080;-64
2022/01/26 01:46:29;;;;;;;;;;;19.00;57.80;;;;;;5053887;28;1071;-64
2022/01/26 01:48:54;;;;;;;;;;;19.00;57.70;;;;;;5052283;28;1338;-64
2022/01/26 01:51:26;;;;;;;;;;;19.00;57.80;;;;;;5053207;28;1136;-63
2022/01/26 01:53:52;;;;;;;;;;;19.00;57.80;;;;;;5053518;28;1317;-63
2022/01/26 01:56:20;;;;;;;;;;;19.00;57.80;;;;;;5053544;28;1262;-63
2022/01/26 01:58:46;;;;;;;;;;;19.00;57.80;;;;;;5051532;28;1313;-63
2022/01/26 02:01:11;;;;;;;;;;;19.00;57.80;;;;;;5052348;28;1516;-63
2022/01/26 02:03:37;;;;;;;;;;;19.00;57.80;;;;;;5050577;28;905;-63
2022/01/26 02:06:02;;;;;;;;;;;19.00;57.80;;;;;;5048910;28;1448;-64
2022/01/26 02:08:27;;;;;;;;;;;19.00;57.80;;;;;;5051860;28;1695;-65
2022/01/26 02:10:53;;;;;;;;;;;19.00;57.90;;;;;;5053274;28;1388;-65
2022/01/26 02:13:26;;;;;;;;;;;19.00;57.90;;;;;;5053433;28;1906;-65
2022/01/26 02:16:01;;;;;;;;;;;19.00;57.90;;;;;;5051729;28;1692;-65
2022/01/26 02:51:22;;;;;;;;;;;18.90;57.90;;;;;;5052563;28;1440;-64
2022/01/26 02:59:33;;;;;;;;;;;19.10;57.70;;;;;;5043093;28;1116;-64
2022/01/26 03:02:00;;;;;;;;;;;19.20;57.60;;;;;;5040962;28;1284;-64
2022/01/26 03:07:17;;;;;;;;;;;19.50;57.30;;;;;;5051895;28;1674;-65
2022/01/26 03:09:48;;;;;;;;;;;19.60;57.00;;;;;;5051654;28;1668;-65
2022/01/26 03:12:21;;;;;;;;;;;19.70;56.70;;;;;;5053093;28;1957;-65
2022/01/26 03:14:52;;;;;;;;;;;19.90;56.40;;;;;;5051172;28;1390;-65
2022/01/26 03:19:52;;;;;;;;;;;20.10;55.80;;;;;;5042307;28;1324;-64
2022/01/26 03:33:12;;;;;;;;;;;20.60;54.50;;;;;;5046168;28;1906;-64
2022/01/26 03:35:50;;;;;;;;;;;20.70;54.30;;;;;;5063944;28;1288;-64
2022/01/26 03:38:23;;;;;;;;;;;20.80;54.20;;;;;;5062675;28;1398;-64
2022/01/26 03:40:58;;;;;;;;;;;20.80;54.00;;;;;;5046270;28;1159;-64
2022/01/26 03:43:23;;;;;;;;;;;20.90;53.80;;;;;;5049300;28;1159;-64
2022/01/26 03:45:49;;;;;;;;;;;21.00;53.70;;;;;;5046624;28;1280;-64
2022/01/26 03:48:14;;;;;;;;;;;21.00;53.60;;;;;;5070855;28;1542;-65
2022/01/26 03:50:40;;;;;;;;;;;21.00;53.50;;;;;;5056272;28;1442;-64
2022/01/26 03:53:05;;;;;;;;;;;21.10;53.50;;;;;;5055806;28;1941;-65
2022/01/26 03:55:31;;;;;;;;;;;21.10;53.40;;;;;;5055761;28;1295;-65
2022/01/26 03:57:56;;;;;;;;;;;21.10;53.30;;;;;;5055387;28;1173;-65
2022/01/26 04:00:21;;;;;;;;;;;21.10;53.30;;;;;;5055544;28;1180;-65
2022/01/26 04:02:48;;;;;;;;;;;21.10;53.30;;;;;;5055881;28;1087;-65
2022/01/26 04:05:13;;;;;;;;;;;21.20;53.30;;;;;;5056102;28;1203;-65
2022/01/26 04:07:39;;;;;;;;;;;21.10;53.30;;;;;;5055176;28;1392;-64
2022/01/26 04:10:17;;;;;;;;;;;21.10;53.40;;;;;;5055049;28;1075;-64
2022/01/26 04:12:42;;;;;;;;;;;21.20;53.40;;;;;;5054741;28;1894;-65
2022/01/26 04:15:18;;;;;;;;;;;21.10;53.40;;;;;;5056312;28;1270;-65
2022/01/26 04:17:43;;;;;;;;;;;21.10;53.40;;;;;;5054668;28;1495;-65
2022/01/26 04:20:11;;;;;;;;;;;21.20;53.40;;;;;;5055476;28;1162;-65
2022/01/26 04:22:49;;;;;;;;;;;21.10;53.40;;;;;;5055736;28;1420;-65
2022/01/26 04:25:20;;;;;;;;;;;21.10;53.40;;;;;;5055318;28;1350;-65
2022/01/26 04:27:48;;;;;;;;;;;21.10;53.40;;;;;;5054977;28;1200;-65
2022/01/26 04:30:14;;;;;;;;;;;21.10;53.40;;;;;;5055479;28;1172;-64
2022/01/26 04:32:39;;;;;;;;;;;21.10;53.40;;;;;;5055467;28;1909;-65
2022/01/26 04:35:06;;;;;;;;;;;21.10;53.50;;;;;;5055184;28;1356;-65
2022/01/26 04:38:11;;;;;;;;;;;21.10;53.50;;;;;;5054102;28;1039;-65
2022/01/26 04:40:20;;;;;;;;;;;21.10;53.50;;;;;;5054673;28;1097;-65
2022/01/26 04:45:11;;;;;;;;;;;21.00;53.60;;;;;;5054597;28;1281;-65
2022/01/26 04:47:37;;;;;;;;;;;21.00;53.70;;;;;;5054453;28;1063;-65
2022/01/26 04:50:02;;;;;;;;;;;21.00;53.70;;;;;;5053799;28;1119;-65
2022/01/26 04:52:28;;;;;;;;;;;21.00;53.80;;;;;;5055239;28;1959;-65
2022/01/26 04:54:53;;;;;;;;;;;20.90;53.80;;;;;;5054386;28;1198;-65
2022/01/26 04:57:19;;;;;;;;;;;20.90;53.80;;;;;;5054304;28;1126;-64
2022/01/26 04:59:44;;;;;;;;;;;20.90;53.90;;;;;;5054356;28;988;-65
2022/01/26 05:02:09;;;;;;;;;;;20.90;53.90;;;;;;5053560;28;1083;-64
2022/01/26 05:04:35;;;;;;;;;;;20.90;54.00;;;;;;5086012;22;4238;-67
2022/01/26 05:07:00;;;;;;;;;;;20.80;54.00;;;;;;5052914;28;1103;-67
2022/01/26 05:09:26;;;;;;;;;;;20.80;54.00;;;;;;5054530;28;1346;-67
2022/01/26 05:11:54;;;;;;;;;;;20.80;54.00;;;;;;5054511;28;1961;-67
2022/01/26 05:14:19;;;;;;;;;;;20.80;54.10;;;;;;5054276;28;1282;-67
2022/01/26 05:16:45;;;;;;;;;;;20.80;54.10;;;;;;5053265;28;1424;-67
2022/01/26 05:19:10;;;;;;;;;;;20.80;54.10;;;;;;5052457;28;1394;-67
2022/01/26 05:21:36;;;;;;;;;;;20.80;54.20;;;;;;5054229;28;1067;-68
2022/01/26 05:24:01;;;;;;;;;;;20.80;54.20;;;;;;5054418;28;1111;-67
2022/01/26 05:26:27;;;;;;;;;;;20.70;54.20;;;;;;5054380;28;1317;-67
2022/01/26 05:28:52;;;;;;;;;;;20.70;54.30;;;;;;5053976;28;1082;-67
2022/01/26 05:31:17;;;;;;;;;;;20.70;54.30;;;;;;5054436;28;1326;-67
2022/01/26 05:33:43;;;;;;;;;;;20.70;54.30;;;;;;5052873;28;1890;-68
2022/01/26 05:36:09;;;;;;;;;;;20.70;54.40;;;;;;5052666;28;1346;-67
2022/01/26 05:38:34;;;;;;;;;;;20.70;54.40;;;;;;5052477;28;1111;-68
2022/01/26 05:41:01;;;;;;;;;;;20.70;54.40;;;;;;5052197;28;1142;-68
2022/01/26 05:43:30;;;;;;;;;;;20.70;54.50;;;;;;5053956;28;1070;-68
2022/01/26 05:46:00;;;;;;;;;;;20.60;54.50;;;;;;5053948;28;1217;-67
2022/01/26 05:48:26;;;;;;;;;;;20.60;54.50;;;;;;5052456;28;1087;-67
2022/01/26 05:50:53;;;;;;;;;;;20.60;54.50;;;;;;5053756;28;1146;-67
2022/01/26 05:53:21;;;;;;;;;;;20.60;54.50;;;;;;5053844;28;1898;-67
2022/01/26 05:55:50;;;;;;;;;;;20.60;54.50;;;;;;5054026;28;1231;-67
2022/01/26 05:58:16;;;;;;;;;;;20.60;54.60;;;;;;5051630;28;1335;-67
2022/01/26 06:00:41;;;;;;;;;;;20.60;54.60;;;;;;5053523;28;1067;-67
2022/01/26 06:03:06;;;;;;;;;;;20.60;54.60;;;;;;5053600;28;1415;-67
2022/01/26 06:05:32;;;;;;;;;;;20.60;54.70;;;;;;5053660;28;1186;-67
2022/01/26 06:07:57;;;;;;;;;;;20.60;54.70;;;;;;5052864;28;1051;-67
2022/01/26 06:10:23;;;;;;;;;;;20.50;54.70;;;;;;5053617;28;1074;-67
2022/01/26 06:12:48;;;;;;;;;;;20.50;54.70;;;;;;5052192;28;2046;-66
2022/01/26 06:15:14;;;;;;;;;;;20.50;54.70;;;;;;5053198;28;1365;-66
2022/01/26 06:17:39;;;;;;;;;;;20.50;54.80;;;;;;5052989;28;1193;-66
2022/01/26 06:20:05;;;;;;;;;;;20.50;54.80;;;;;;5051949;28;981;-67
2022/01/26 06:22:31;;;;;;;;;;;20.50;54.80;;;;;;5053515;28;1109;-67
2022/01/26 06:24:57;;;;;;;;;;;20.50;54.90;;;;;;5052890;28;1261;-66
2022/01/26 06:27:23;;;;;;;;;;;20.40;54.90;;;;;;5052709;28;1122;-66
2022/01/26 06:29:48;;;;;;;;;;;20.40;54.90;;;;;;5052714;28;1177;-67
2022/01/26 06:32:16;;;;;;;;;;;20.40;54.90;;;;;;5053085;28;1902;-67
2022/01/26 06:34:42;;;;;;;;;;;20.40;54.90;;;;;;5052804;28;1288;-66
2022/01/26 06:37:07;;;;;;;;;;;20.40;55.00;;;;;;5052546;28;1059;-67
2022/01/26 06:39:33;;;;;;;;;;;20.40;55.00;;;;;;5052675;28;1429;-67
2022/01/26 06:41:58;;;;;;;;;;;20.40;55.00;;;;;;5052846;28;1055;-66
2022/01/26 06:44:32;;;;;;;;;;;20.40;55.00;;;;;;5051926;28;1276;-66
2022/01/26 06:49:35;;;;;;;;;;;20.40;55.10;;;;;;5052231;28;1051;-68
2022/01/26 06:52:00;;;;;;;;;;;20.30;55.00;;;;;;5051597;28;1949;-66
2022/01/26 06:54:26;;;;;;;;;;;20.30;55.00;;;;;;5051198;28;1420;-66
2022/01/26 06:56:51;;;;;;;;;;;20.30;55.10;;;;;;5050946;28;1063;-66
2022/01/26 06:59:17;;;;;;;;;;;20.30;55.10;;;;;;5050366;28;1095;-66
2022/01/26 07:01:42;;;;;;;;;;;20.30;55.20;;;;;;5052616;28;1055;-65
2022/01/26 07:04:08;;;;;;;;;;;20.30;55.20;;;;;;5034593;28;1339;-67
2022/01/26 07:06:33;;;;;;;;;;;20.30;55.20;;;;;;5051722;28;1402;-66
2022/01/26 07:08:59;;;;;;;;;;;20.30;55.20;;;;;;5051945;28;1115;-66
2022/01/26 07:11:24;;;;;;;;;;;20.30;55.30;;;;;;5052775;28;1072;-66
2022/01/26 07:13:52;;;;;;;;;;;20.20;55.20;;;;;;5051205;28;1913;-68
2022/01/26 07:21:46;;;;;;;;;;;20.20;55.30;;;;;;5052681;28;1094;-66
2022/01/26 07:24:12;;;;;;;;;;;20.20;55.40;;;;;;5050571;28;1867;-67
2022/01/26 07:26:38;;;;;;;;;;;20.20;55.40;;;;;;5046480;28;1908;-67
2022/01/26 07:29:07;;;;;;;;;;;20.20;55.40;;;;;;5051976;28;1322;-67
2022/01/26 07:31:34;;;;;;;;;;;20.20;55.40;;;;;;5048646;28;1118;-65
2022/01/26 07:33:59;;;;;;;;;;;20.20;55.40;;;;;;5039286;28;1670;-66
2022/01/26 07:36:25;;;;;;;;;;;20.20;55.50;;;;;;5051151;28;1680;-66
2022/01/26 07:38:52;;;;;;;;;;;20.20;55.50;;;;;;5050447;28;1302;-65
2022/01/26 07:41:17;;;;;;;;;;;20.20;55.50;;;;;;5051182;28;1301;-67
2022/01/26 07:43:43;;;;;;;;;;;20.20;55.50;;;;;;5051340;28;1102;-67
2022/01/26 07:46:09;;;;;;;;;;;20.20;55.50;;;;;;5049810;28;1390;-66
2022/01/26 07:48:35;;;;;;;;;;;20.20;55.50;;;;;;5050621;28;1306;-67
2022/01/26 07:51:01;;;;;;;;;;;20.20;55.50;;;;;;5050885;28;1251;-68
2022/01/26 07:53:26;;;;;;;;;;;20.20;55.50;;;;;;5051667;28;1961;-67
2022/01/26 07:55:51;;;;;;;;;;;20.30;55.40;;;;;;5051081;28;1223;-67
2022/01/26 07:58:18;;;;;;;;;;;20.30;55.30;;;;;;5050333;28;1308;-66
2022/01/26 08:00:44;;;;;;;;;;;20.40;55.20;;;;;;5049846;28;2115;-67
2022/01/26 08:03:09;;;;;;;;;;;20.50;55.00;;;;;;5051929;28;1126;-66
2022/01/26 08:05:34;;;;;;;;;;;20.60;54.90;;;;;;5051789;28;1301;-66
2022/01/26 08:08:00;;;;;;;;;;;20.70;54.70;;;;;;5048906;28;1393;-67
2022/01/26 08:10:25;;;;;;;;;;;20.80;54.50;;;;;;5050908;28;1048;-67
2022/01/26 08:12:51;;;;;;;;;;;20.90;54.20;;;;;;5053110;28;1914;-66
2022/01/26 08:15:16;;;;;;;;;;;21.00;54.00;;;;;;5054792;28;1329;-67
2022/01/26 08:17:42;;;;;;;;;;;21.10;53.80;;;;;;5053435;28;1357;-66
2022/01/26 08:20:10;;;;;;;;;;;21.10;53.70;;;;;;5053495;28;1904;-67
2022/01/26 08:22:35;;;;;;;;;;;21.20;53.60;;;;;;5054334;28;1074;-67
2022/01/26 08:25:01;;;;;;;;;;;21.20;53.50;;;;;;5054038;28;1409;-66
2022/01/26 08:27:30;;;;;;;;;;;21.20;53.40;;;;;;5053529;28;1406;-64
2022/01/26 08:29:58;;;;;;;;;;;21.30;53.40;;;;;;5053460;28;1303;-66
2022/01/26 08:32:24;;;;;;;;;;;21.30;53.40;;;;;;5051399;28;1894;-68
2022/01/26 08:34:49;;;;;;;;;;;21.30;53.40;;;;;;5046309;28;2153;-66
2022/01/26 08:37:15;;;;;;;;;;;21.30;53.40;;;;;;5038438;28;2108;-69
2022/01/26 08:39:40;;;;;;;;;;;21.30;53.30;;;;;;5053257;28;1080;-68
2022/01/26 08:42:06;;;;;;;;;;;21.30;53.20;;;;;;5036074;28;1412;-68
2022/01/26 08:44:32;;;;;;;;;;;21.30;53.30;;;;;;5052896;28;1418;-69
2022/01/26 08:46:58;;;;;;;;;;;21.30;53.20;;;;;;5053216;28;1283;-69
2022/01/26 08:49:25;;;;;;;;;;;21.30;53.30;;;;;;5054617;28;1069;-69
2022/01/26 08:51:51;;;;;;;;;;;21.30;53.30;;;;;;5054561;28;1922;-69
2022/01/26 08:54:19;;;;;;;;;;;21.30;53.30;;;;;;5054834;28;1288;-69
2022/01/26 08:56:45;;;;;;;;;;;21.20;53.30;;;;;;5055174;28;1188;-69
2022/01/26 08:59:11;;;;;;;;;;;21.20;53.40;;;;;;5054291;28;1282;-69
2022/01/26 09:01:36;;;;;;;;;;;21.20;53.40;;;;;;5054421;28;1199;-70
2022/01/26 09:04:02;;;;;;;;;;;21.20;53.50;;;;;;5054811;28;1309;-69
2022/01/26 09:06:27;;;;;;;;;;;21.20;53.50;;;;;;5054746;28;1387;-69
2022/01/26 09:08:57;;;;;;;;;;;21.20;53.60;;;;;;5054197;28;1062;-69
2022/01/26 09:11:23;;;;;;;;;;;21.20;53.60;;;;;;5054242;28;1228;-69
2022/01/26 09:13:56;;;;;;;;;;;21.10;53.60;;;;;;5054087;28;1953;-69
2022/01/26 09:16:24;;;;;;;;;;;21.10;53.70;;;;;;5054694;28;1265;-69
2022/01/26 09:18:52;;;;;;;;;;;21.10;53.70;;;;;;5052983;28;1364;-69
2022/01/26 09:21:18;;;;;;;;;;;21.10;53.80;;;;;;5053174;28;1388;-68
2022/01/26 09:23:43;;;;;;;;;;;21.10;53.80;;;;;;5053708;28;1071;-69
2022/01/26 09:26:09;;;;;;;;;;;21.10;53.90;;;;;;5054077;28;1205;-69
2022/01/26 09:28:34;;;;;;;;;;;21.10;53.90;;;;;;5050629;28;1861;-69
2022/01/26 09:31:00;;;;;;;;;;;21.00;53.80;;;;;;5042707;28;934;-69
2022/01/26 09:33:25;;;;;;;;;;;21.00;53.90;;;;;;5053703;28;1906;-69
2022/01/26 09:35:51;;;;;;;;;;;21.00;54.00;;;;;;5053148;28;1333;-69
2022/01/26 09:38:17;;;;;;;;;;;21.00;54.00;;;;;;5052072;28;1305;-69
2022/01/26 09:40:43;;;;;;;;;;;21.00;54.00;;;;;;5053109;28;1337;-68
2022/01/26 09:43:08;;;;;;;;;;;21.00;54.10;;;;;;5053044;28;1388;-69
2022/01/26 09:45:36;;;;;;;;;;;21.00;54.10;;;;;;5051636;28;1224;-69
2022/01/26 09:48:02;;;;;;;;;;;20.90;54.10;;;;;;5051968;28;1323;-69
2022/01/26 09:50:28;;;;;;;;;;;20.90;54.10;;;;;;5053059;28;1080;-69
2022/01/26 09:52:55;;;;;;;;;;;20.90;54.10;;;;;;5053308;28;1968;-69
2022/01/26 09:55:20;;;;;;;;;;;20.90;54.20;;;;;;5053075;28;1222;-69
2022/01/26 09:57:46;;;;;;;;;;;20.90;54.20;;;;;;5052771;28;1083;-69
2022/01/26 10:00:12;;;;;;;;;;;20.90;54.30;;;;;;5052803;28;1063;-69
2022/01/26 10:02:39;;;;;;;;;;;20.90;54.30;;;;;;5051830;28;1284;-69
2022/01/26 10:05:07;;;;;;;;;;;20.80;54.30;;;;;;5052831;28;1293;-69
2022/01/26 10:15:35;;;;;;;;;;;20.80;54.40;;;;;;5054490;22;3839;-71
2022/01/26 10:18:02;;;;;;;;;;;20.90;54.40;;;;;;5027454;28;960;-71
2022/01/26 10:20:28;;;;;;;;;;;20.90;54.30;;;;;;5032097;28;1370;-70
2022/01/26 10:22:53;;;;;;;;;;;21.00;54.30;;;;;;5031232;28;1368;-70
2022/01/26 10:25:19;;;;;;;;;;;21.00;54.10;;;;;;5032377;28;1384;-71
2022/01/26 10:27:45;;;;;;;;;;;21.00;54.10;;;;;;5030775;28;1052;-70
2022/01/26 10:30:12;;;;;;;;;;;21.10;54.00;;;;;;5031431;28;1173;-71
2022/01/26 10:32:37;;;;;;;;;;;21.10;53.90;;;;;;5031505;28;1960;-70
2022/01/26 10:35:05;;;;;;;;;;;21.10;53.80;;;;;;5031952;28;1733;-70
2022/01/26 10:37:30;;;;;;;;;;;21.20;53.80;;;;;;5031260;28;1048;-70
2022/01/26 10:40:10;;;;;;;;;;;21.20;53.70;;;;;;5030936;28;1576;-69
2022/01/26 10:42:36;;;;;;;;;;;21.20;53.70;;;;;;5031329;28;1063;-71
2022/01/26 10:45:16;;;;;;;;;;;21.20;53.70;;;;;;5031339;28;1367;-71
2022/01/26 10:47:46;;;;;;;;;;;21.20;53.70;;;;;;5032045;28;1047;-70
2022/01/26 10:53:08;;;;;;;;;;;21.20;53.70;;;;;;5031512;28;1974;-70
2022/01/26 10:55:35;;;;;;;;;;;21.10;53.80;;;;;;5032736;28;1278;-71
2022/01/26 10:58:00;;;;;;;;;;;21.10;53.80;;;;;;5047632;28;1309;-70
2022/01/26 11:00:26;;;;;;;;;;;21.10;53.80;;;;;;5032552;28;1445;-71
2022/01/26 11:02:57;;;;;;;;;;;21.10;53.90;;;;;;5031493;28;1056;-71
2022/01/26 11:05:23;;;;;;;;;;;21.10;53.90;;;;;;5031389;28;1247;-71
2022/01/26 11:07:49;;;;;;;;;;;21.10;53.90;;;;;;5032193;28;1001;-71
2022/01/26 11:10:14;;;;;;;;;;;21.10;53.90;;;;;;5031477;28;1354;-71
2022/01/26 11:12:40;;;;;;;;;;;21.10;53.90;;;;;;5014505;28;1949;-71
2022/01/26 11:15:07;;;;;;;;;;;21.10;53.90;;;;;;5032155;28;1232;-70
2022/01/26 11:17:35;;;;;;;;;;;21.10;53.90;;;;;;5028978;28;1988;-71
2022/01/26 11:20:02;;;;;;;;;;;21.10;53.90;;;;;;5026135;28;1122;-71
2022/01/26 11:22:31;;;;;;;;;;;21.10;53.90;;;;;;5029271;28;1163;-68
2022/01/26 11:25:09;;;;;;;;;;;21.10;53.90;;;;;;5032368;28;1260;-70
2022/01/26 11:27:35;;;;;;;;;;;21.10;53.90;;;;;;5030528;28;1300;-69
2022/01/26 11:30:05;;;;;;;;;;;21.10;53.90;;;;;;5032286;28;1245;-68
2022/01/26 11:32:35;;;;;;;;;;;21.10;54.00;;;;;;5031128;28;1957;-68
2022/01/26 11:35:04;;;;;;;;;;;21.10;54.00;;;;;;5024375;28;2037;-69
2022/01/26 11:37:44;;;;;;;;;;;21.10;54.00;;;;;;5013621;28;1012;-69
2022/01/26 11:45:26;;;;;;;;;;;21.00;54.00;;;;;;5030739;28;1248;-70
2022/01/26 11:47:59;;;;;;;;;;;21.00;54.10;;;;;;5033871;28;1072;-70
2022/01/26 11:50:25;;;;;;;;;;;21.00;54.10;;;;;;5035555;28;1075;-70
2022/01/26 11:52:59;;;;;;;;;;;21.00;54.10;;;;;;5035971;28;1890;-70
2022/01/26 11:55:34;;;;;;;;;;;21.00;54.10;;;;;;5035986;28;1345;-70
2022/01/26 11:58:06;;;;;;;;;;;21.00;54.10;;;;;;5034128;28;1311;-70
2022/01/26 12:00:40;;;;;;;;;;;21.10;54.10;;;;;;5035965;28;1411;-70
2022/01/26 12:03:10;;;;;;;;;;;21.10;54.00;;;;;;5035094;28;1294;-70
2022/01/26 12:05:44;;;;;;;;;;;21.10;54.00;;;;;;5034914;28;1337;-70
2022/01/26 12:08:10;;;;;;;;;;;21.10;54.00;;;;;;5033932;28;1526;-70
2022/01/26 12:10:38;;;;;;;;;;;21.10;54.00;;;;;;5034883;28;1069;-70
2022/01/26 12:13:03;;;;;;;;;;;21.10;53.90;;;;;;5035484;28;1898;-70
2022/01/26 12:15:32;;;;;;;;;;;21.10;53.90;;;;;;5036072;28;1262;-71
2022/01/26 12:19:10;;;;;;;;;;;21.10;53.90;;;;;;5034901;28;1354;-71
2022/01/26 12:32:15;;;;;;;;;;;21.10;53.90;;;;;;5032066;28;1906;-69
2022/01/26 12:34:50;;;;;;;;;;;21.10;53.90;;;;;;5025001;28;2062;-70
2022/01/26 12:37:32;;;;;;;;;;;21.10;54.00;;;;;;5025099;28;1217;-70
2022/01/26 12:42:58;;;;;;;;;;;21.10;54.00;;;;;;5033309;28;1325;-69
2022/01/26 12:45:24;;;;;;;;;;;21.10;54.00;;;;;;5034253;28;1342;-69
2022/01/26 12:47:50;;;;;;;;;;;21.10;54.10;;;;;;5033404;28;1446;-68
2022/01/26 12:50:16;;;;;;;;;;;21.00;54.00;;;;;;5035028;28;1294;-69
2022/01/26 12:52:48;;;;;;;;;;;21.00;54.00;;;;;;5032414;28;1998;-69
2022/01/26 12:55:27;;;;;;;;;;;21.00;54.10;;;;;;5029232;28;1302;-68
2022/01/26 12:57:52;;;;;;;;;;;21.00;54.10;;;;;;5044437;28;1298;-69
2022/01/26 13:00:18;;;;;;;;;;;21.00;54.10;;;;;;5034386;28;1292;-67
2022/01/26 13:02:44;;;;;;;;;;;21.00;54.10;;;;;;5032851;28;1298;-67
2022/01/26 13:05:21;;;;;;;;;;;21.00;54.20;;;;;;5034708;28;1252;-69
2022/01/26 13:07:49;;;;;;;;;;;21.00;54.20;;;;;;5030950;28;1998;-68
2022/01/26 13:10:15;;;;;;;;;;;20.90;54.20;;;;;;5032192;28;1082;-70
2022/01/26 13:12:40;;;;;;;;;;;20.90;54.20;;;;;;5030027;28;1902;-70
2022/01/26 13:15:19;;;;;;;;;;;20.90;54.30;;;;;;5034085;28;1375;-68
2022/01/26 13:17:57;;;;;;;;;;;20.90;54.30;;;;;;5033355;28;1118;-70
2022/01/26 13:23:41;;;;;;;;;;;20.90;54.40;;;;;;5011677;28;1212;-69
2022/01/26 13:33:57;;;;;;;;;;;20.80;54.40;;;;;;5034398;28;1968;-70
2022/01/26 13:36:32;;;;;;;;;;;20.80;54.40;;;;;;5024879;28;1312;-68
2022/01/26 13:39:14;;;;;;;;;;;20.80;54.50;;;;;;5033173;28;1492;-68
2022/01/26 13:47:15;;;;;;;;;;;20.80;54.50;;;;;;5033854;28;1298;-69
2022/01/26 13:49:50;;;;;;;;;;;20.80;54.60;;;;;;5034218;28;1415;-68
2022/01/26 13:52:19;;;;;;;;;;;20.80;54.60;;;;;;5033224;28;1957;-68
2022/01/26 13:57:45;;;;;;;;;;;20.70;54.60;;;;;;5033473;28;1079;-68
2022/01/26 14:00:12;;;;;;;;;;;20.70;54.50;;;;;;5032266;28;1762;-68
2022/01/26 14:02:38;;;;;;;;;;;20.70;54.60;;;;;;5032840;28;1048;-68
2022/01/26 14:05:04;;;;;;;;;;;20.70;54.60;;;;;;5031901;28;1631;-69
2022/01/26 14:07:29;;;;;;;;;;;20.70;54.60;;;;;;5025374;28;1930;-68
2022/01/26 14:09:55;;;;;;;;;;;20.70;54.70;;;;;;5032678;28;1118;-70
2022/01/26 14:12:26;;;;;;;;;;;20.70;54.70;;;;;;5033753;28;1905;-69
2022/01/26 14:14:55;;;;;;;;;;;20.70;54.70;;;;;;5032398;28;1398;-70
2022/01/26 14:17:34;;;;;;;;;;;20.70;54.80;;;;;;5016338;28;1416;-69
2022/01/26 14:27:47;;;;;;;;;;;20.60;54.70;;;;;;5020545;28;1048;-68
2022/01/26 14:30:39;;;;;;;;;;;20.60;54.80;;;;;;5032658;28;1170;-68
2022/01/26 14:33:29;;;;;;;;;;;20.60;54.80;;;;;;5031879;28;1902;-68
2022/01/26 14:54:30;;;;;;;;;;;20.50;55.00;;;;;;5033201;28;1251;-67
2022/01/26 15:12:02;;;;;;;;;;;20.50;55.10;;;;;;5032234;28;1099;-67
2022/01/26 15:19:48;;;;;;;;;;;20.50;55.10;;;;;;5031370;28;1249;-68
2022/01/26 15:35:20;;;;;;;;;;;20.40;55.20;;;;;;5032454;28;1321;-67
2022/01/26 15:40:47;;;;;;;;;;;20.40;55.20;;;;;;5032474;28;1127;-68
2022/01/26 15:51:10;;;;;;;;;;;20.40;55.60;;;;;;5032418;28;1384;-68
2022/01/26 16:06:59;;;;;;;;;;;20.30;55.40;;;;;;5031959;28;1432;-68
2022/01/26 16:20:35;;;;;;;;;;;20.30;55.40;;;;;;5065594;28;948;-66
2022/01/26 16:37:39;;;;;;;;;;;20.30;55.50;;;;;;5075725;28;1337;-67
2022/01/26 16:53:51;;;;;;;;;;;20.20;55.50;;;;;;5075555;28;1957;-68
2022/01/26 17:25:57;;;;;;;;;;;20.20;55.60;;;;;;5073621;28;1254;-65
2022/01/26 17:48:17;;;;;;;;;;;20.10;55.60;;;;;;5071624;28;1373;-67
2022/01/26 18:33:21;;;;;;;;;;;20.10;55.70;;;;;;5069309;28;1901;-67
2022/01/26 18:46:57;;;;;;;;;;;20.10;55.70;;;;;;5070288;28;1217;-67
2022/01/26 18:49:24;;;;;;;;;;;20.00;55.70;;;;;;5072934;28;1355;-68
2022/01/26 18:51:53;;;;;;;;;;;20.00;55.70;;;;;;5073355;28;1432;-67
2022/01/26 18:54:20;;;;;;;;;;;20.10;55.70;;;;;;5072944;28;1906;-68
2022/01/26 18:56:46;;;;;;;;;;;20.00;55.70;;;;;;5071352;28;1538;-67
2022/01/26 18:59:12;;;;;;;;;;;20.10;55.70;;;;;;5072560;28;1263;-67
2022/01/26 19:01:38;;;;;;;;;;;20.00;55.70;;;;;;5071358;28;1399;-68
2022/01/26 19:04:03;;;;;;;;;;;20.10;55.70;;;;;;5073317;28;1283;-68
2022/01/26 19:06:29;;;;;;;;;;;20.00;55.70;;;;;;5071572;28;1269;-67
2022/01/26 19:08:57;;;;;;;;;;;20.00;55.70;;;;;;5073108;28;1306;-68
2022/01/26 19:11:23;;;;;;;;;;;20.00;55.70;;;;;;5070429;28;1783;-68
2022/01/26 19:13:49;;;;;;;;;;;20.00;55.70;;;;;;5072550;28;1965;-67
2022/01/26 19:18:54;;;;;;;;;;;20.00;55.70;;;;;;5072865;28;1225;-67
2022/01/26 19:21:37;;;;;;;;;;;20.00;55.70;;;;;;5071474;28;1108;-68
2022/01/26 19:26:43;;;;;;;;;;;20.00;55.70;;;;;;5072485;28;1305;-68
2022/01/26 19:29:22;;;;;;;;;;;20.00;55.70;;;;;;5068593;28;1089;-68
2022/01/26 19:32:16;;;;;;;;;;;20.00;55.70;;;;;;5070261;28;1185;-68
2022/01/26 19:50:53;;;;;;;;;;;20.00;55.70;;;;;;5071358;28;1245;-67
2022/01/26 19:53:19;;;;;;;;;;;20.00;55.70;;;;;;5071423;28;1973;-68
2022/01/26 19:55:44;;;;;;;;;;;20.00;55.70;;;;;;5070228;28;1472;-67
2022/01/26 19:58:10;;;;;;;;;;;20.00;55.80;;;;;;5071771;28;1277;-68
2022/01/26 20:00:43;;;;;;;;;;;20.00;55.70;;;;;;5065526;28;1303;-67
2022/01/26 20:03:16;;;;;;;;;;;20.00;55.80;;;;;;5064194;28;1345;-68
2022/01/26 20:05:42;;;;;;;;;;;20.00;55.70;;;;;;5064196;28;1266;-67
2022/01/26 20:08:26;;;;;;;;;;;20.00;55.80;;;;;;5067934;28;1127;-68
2022/01/26 20:10:57;;;;;;;;;;;20.00;55.70;;;;;;5074968;28;1275;-68
2022/01/26 20:13:32;;;;;;;;;;;20.00;55.70;;;;;;5076331;28;1951;-68
2022/01/26 20:15:59;;;;;;;;;;;20.00;55.70;;;;;;5075440;28;1365;-67
2022/01/26 20:18:24;;;;;;;;;;;20.00;55.70;;;;;;5074498;28;1375;-67
2022/01/26 20:20:50;;;;;;;;;;;20.00;55.70;;;;;;5076700;28;1062;-68
2022/01/26 20:23:16;;;;;;;;;;;20.00;55.70;;;;;;5076332;28;1413;-68
2022/01/26 20:25:43;;;;;;;;;;;19.90;55.70;;;;;;5071244;28;1307;-68
2022/01/26 20:28:11;;;;;;;;;;;20.00;55.70;;;;;;5069393;28;1228;-67
2022/01/26 20:30:40;;;;;;;;;;;19.90;55.70;;;;;;5074352;28;1366;-68
2022/01/26 20:33:06;;;;;;;;;;;20.00;55.70;;;;;;5066973;28;1955;-68
2022/01/26 20:35:31;;;;;;;;;;;19.90;55.70;;;;;;5071185;28;1353;-67
2022/01/26 20:37:57;;;;;;;;;;;20.00;55.80;;;;;;5073971;28;1354;-67
2022/01/26 20:40:23;;;;;;;;;;;20.00;55.80;;;;;;5074367;28;1345;-67
2022/01/26 20:42:48;;;;;;;;;;;20.00;55.80;;;;;;5075228;28;1106;-67
2022/01/26 20:45:20;;;;;;;;;;;20.00;55.80;;;;;;5075579;28;1372;-67
2022/01/26 20:47:46;;;;;;;;;;;19.90;55.70;;;;;;5067181;28;1278;-67
2022/01/26 20:50:12;;;;;;;;;;;19.90;55.70;;;;;;5069119;28;1015;-68
2022/01/26 20:52:38;;;;;;;;;;;20.00;55.80;;;;;;5070494;28;1894;-67
2022/01/26 20:55:03;;;;;;;;;;;20.00;55.80;;;;;;5075150;28;1308;-66
2022/01/26 20:57:29;;;;;;;;;;;20.00;55.80;;;;;;5074881;28;1292;-67
2022/01/26 20:59:55;;;;;;;;;;;20.00;55.80;;;;;;5074852;28;1301;-67
2022/01/26 21:02:21;;;;;;;;;;;20.00;55.80;;;;;;5066931;28;1078;-66